createdAt,value
2023-01-29T00:00:28.999Z,58.87
2023-01-29T00:02:00.227Z,58.97
2023-01-29T00:03:52.006Z,58.76
2023-01-29T00:04:26.570Z,59.17
2023-01-29T00:05:10.002Z,58.98
2023-01-29T00:05:49.856Z,58.97
2023-01-29T00:06:25.860Z,59.28
2023-01-29T00:06:59.449Z,59.04
2023-01-29T00:08:10.330Z,59.08
2023-01-29T00:09:21.106Z,59.16
2023-01-29T00:11:09.734Z,59.33
2023-01-29T00:12:20.473Z,59.04
2023-01-29T00:12:53.346Z,59.46
2023-01-29T00:13:26.215Z,59.06
2023-01-29T00:14:36.973Z,59.02
2023-01-29T00:15:09.946Z,58.92
2023-01-29T00:16:58.793Z,58.90
2023-01-29T00:17:31.640Z,59.02
2023-01-29T00:18:42.733Z,59.04
2023-01-29T00:19:15.703Z,58.93
2023-01-29T00:21:36.860Z,59.19
2023-01-29T00:22:09.787Z,58.86
2023-01-29T00:23:20.654Z,59.08
2023-01-29T00:25:47.985Z,59.19
2023-01-29T00:26:21.180Z,59.04
2023-01-29T00:27:31.867Z,59.35
2023-01-29T00:28:04.975Z,58.87
2023-01-29T00:28:37.950Z,59.16
2023-01-29T00:30:08.618Z,59.21
2023-01-29T00:30:41.591Z,59.56
2023-01-29T00:31:16.313Z,59.35
2023-01-29T00:31:49.439Z,59.17
2023-01-29T00:32:22.575Z,59.16
2023-01-29T00:32:55.560Z,59.24
2023-01-29T00:33:29.124Z,59.11
2023-01-29T00:34:39.777Z,59.00
2023-01-29T00:36:28.521Z,58.90
2023-01-29T00:37:04.942Z,58.96
2023-01-29T00:37:38.250Z,59.11
2023-01-29T00:38:11.199Z,59.11
2023-01-29T00:38:44.420Z,58.95
2023-01-29T00:39:17.376Z,59.01
2023-01-29T00:39:50.347Z,58.85
2023-01-29T00:41:33.874Z,58.90
2023-01-29T00:42:25.694Z,59.12
2023-01-29T00:43:17.075Z,59.13
2023-01-29T00:44:08.807Z,59.16
2023-01-29T00:45:38.821Z,58.98
2023-01-29T00:46:12.019Z,59.18
2023-01-29T00:46:45.199Z,59.13
2023-01-29T00:47:33.947Z,59.41
2023-01-29T00:48:07.210Z,59.00
2023-01-29T00:49:17.886Z,59.27
2023-01-29T00:50:28.630Z,59.18
2023-01-29T00:51:40.185Z,59.26
2023-01-29T00:52:25.224Z,59.15
2023-01-29T00:53:35.993Z,59.15
2023-01-29T00:54:08.937Z,59.25
2023-01-29T00:54:41.789Z,59.03
2023-01-29T00:55:52.451Z,59.00
2023-01-29T00:56:26.139Z,59.10
2023-01-29T00:56:59.062Z,59.33
2023-01-29T00:58:10.333Z,59.21
2023-01-29T00:59:21.091Z,59.26
2023-01-29T01:02:06.125Z,59.02
2023-01-29T01:02:57.884Z,59.39
2023-01-29T01:04:12.510Z,59.11
2023-01-29T01:04:45.410Z,59.47
2023-01-29T01:05:18.750Z,59.36
2023-01-29T01:05:51.657Z,59.48
2023-01-29T01:07:02.312Z,59.28
2023-01-29T01:07:35.210Z,59.25
2023-01-29T01:08:27.996Z,59.34
2023-01-29T01:09:19.121Z,59.31
2023-01-29T01:10:10.718Z,59.41
2023-01-29T01:10:44.425Z,59.18
2023-01-29T01:11:17.389Z,59.17
2023-01-29T01:11:50.395Z,59.31
2023-01-29T01:13:03.174Z,59.25
2023-01-29T01:14:14.336Z,59.37
2023-01-29T01:17:32.879Z,59.09
2023-01-29T01:18:43.641Z,59.45
2023-01-29T01:19:54.575Z,59.51
2023-01-29T01:20:28.633Z,59.29
2023-01-29T01:21:39.407Z,59.44
2023-01-29T01:22:12.383Z,59.42
2023-01-29T01:23:23.170Z,59.30
2023-01-29T01:23:56.131Z,59.65
2023-01-29T01:24:31.223Z,59.09
2023-01-29T01:25:04.464Z,59.18
2023-01-29T01:26:53.499Z,59.26
2023-01-29T01:27:26.615Z,59.40
2023-01-29T01:28:31.492Z,59.10
2023-01-29T01:30:59.576Z,59.17
2023-01-29T01:32:10.298Z,58.84
2023-01-29T01:33:22.662Z,58.85
2023-01-29T01:35:11.707Z,58.81
2023-01-29T01:35:44.655Z,58.92
2023-01-29T01:36:18.542Z,58.81
2023-01-29T01:36:51.530Z,58.94
2023-01-29T01:38:44.693Z,58.80
2023-01-29T01:39:17.739Z,58.87
2023-01-29T01:40:29.224Z,58.70
2023-01-29T01:42:19.519Z,58.95
2023-01-29T01:42:56.792Z,58.79
2023-01-29T01:43:48.602Z,58.58
2023-01-29T01:45:15.634Z,58.60
2023-01-29T01:45:48.689Z,58.88
2023-01-29T01:47:01.043Z,58.66
2023-01-29T01:49:56.931Z,58.90
2023-01-29T01:50:33.591Z,58.67
2023-01-29T01:51:06.620Z,58.86
2023-01-29T01:52:19.108Z,58.72
2023-01-29T01:54:06.042Z,58.83
2023-01-29T01:54:38.974Z,58.75
2023-01-29T01:55:55.987Z,58.98
2023-01-29T01:56:40.544Z,58.68
2023-01-29T01:57:17.325Z,58.84
2023-01-29T01:58:47.887Z,58.98
2023-01-29T01:59:20.846Z,58.90
2023-01-29T02:00:00.136Z,58.90
2023-01-29T02:00:33.224Z,59.00
2023-01-29T02:01:06.985Z,58.95
2023-01-29T02:02:39.545Z,58.97
2023-01-29T02:03:31.199Z,58.96
2023-01-29T02:04:30.243Z,59.05
2023-01-29T02:05:21.578Z,59.10
2023-01-29T02:06:13.735Z,59.18
2023-01-29T02:08:01.696Z,59.10
2023-01-29T02:09:15.055Z,59.24
2023-01-29T02:10:37.846Z,59.30
2023-01-29T02:11:10.779Z,59.42
2023-01-29T02:12:21.634Z,59.50
2023-01-29T02:13:32.487Z,59.40
2023-01-29T02:15:58.983Z,59.45
2023-01-29T02:17:16.594Z,59.37
2023-01-29T02:18:27.295Z,59.39
2023-01-29T02:20:16.479Z,59.22
2023-01-29T02:21:01.679Z,59.24
2023-01-29T02:23:44.376Z,59.71
2023-01-29T02:24:50.439Z,59.74
2023-01-29T02:25:42.343Z,59.60
2023-01-29T02:27:38.362Z,59.82
2023-01-29T02:29:25.377Z,60.41
2023-01-29T02:30:01.028Z,60.71
2023-01-29T02:30:34.499Z,60.62
2023-01-29T02:31:31.973Z,60.81
2023-01-29T02:32:17.511Z,61.00
2023-01-29T02:33:02.537Z,61.30
2023-01-29T02:33:57.052Z,61.12
2023-01-29T02:34:32.578Z,61.42
2023-01-29T02:35:28.487Z,61.69
2023-01-29T02:36:04.149Z,61.69
2023-01-29T02:37:03.314Z,61.96
2023-01-29T02:37:47.646Z,61.81
2023-01-29T02:39:44.177Z,61.91
2023-01-29T02:40:37.167Z,62.01
2023-01-29T02:41:27.296Z,62.35
2023-01-29T02:42:02.428Z,62.27
2023-01-29T02:42:39.191Z,62.32
2023-01-29T02:43:35.709Z,62.59
2023-01-29T02:44:38.582Z,62.92
2023-01-29T02:45:16.202Z,62.74
2023-01-29T02:45:49.057Z,62.73
2023-01-29T02:46:24.972Z,62.68
2023-01-29T02:47:58.986Z,64.54
2023-01-29T02:48:41.683Z,64.40
2023-01-29T02:49:30.317Z,65.00
2023-01-29T02:51:11.183Z,65.01
2023-01-29T02:52:44.824Z,65.52
2023-01-29T02:54:06.721Z,65.86
2023-01-29T02:54:47.350Z,66.21
2023-01-29T02:55:26.283Z,66.01
2023-01-29T02:58:44.507Z,67.05
2023-01-29T02:59:20.606Z,66.93
2023-01-29T03:00:03.363Z,67.28
2023-01-29T03:00:38.802Z,67.21
2023-01-29T03:01:16.286Z,67.22
2023-01-29T03:01:52.488Z,67.30
2023-01-29T03:03:40.548Z,68.13
2023-01-29T03:04:18.770Z,68.34
2023-01-29T03:06:06.471Z,68.49
2023-01-29T03:07:42.843Z,68.49
2023-01-29T03:08:16.910Z,68.41
2023-01-29T03:09:14.987Z,68.62
2023-01-29T03:11:58.858Z,68.92
2023-01-29T03:13:15.524Z,69.23
2023-01-29T03:15:01.312Z,69.01
2023-01-29T03:16:27.383Z,69.32
2023-01-29T03:17:51.919Z,69.83
2023-01-29T03:18:27.899Z,69.78
2023-01-29T03:20:26.605Z,69.65
2023-01-29T03:22:01.763Z,69.60
2023-01-29T03:23:23.989Z,69.93
2023-01-29T03:24:15.952Z,70.09
2023-01-29T03:25:15.911Z,70.25
2023-01-29T03:26:08.136Z,69.98
2023-01-29T03:26:59.650Z,70.19
2023-01-29T03:28:05.692Z,69.84
2023-01-29T03:28:57.199Z,70.51
2023-01-29T03:31:25.191Z,70.14
2023-01-29T03:32:04.349Z,70.14
2023-01-29T03:32:38.797Z,70.17
2023-01-29T03:33:54.167Z,70.19
2023-01-29T03:34:34.993Z,70.06
2023-01-29T03:35:09.116Z,70.33
2023-01-29T03:35:47.653Z,70.09
2023-01-29T03:36:38.017Z,70.25
2023-01-29T03:37:15.580Z,70.28
2023-01-29T03:38:31.870Z,70.03
2023-01-29T03:39:06.483Z,70.20
2023-01-29T03:39:39.639Z,69.93
2023-01-29T03:40:51.852Z,70.08
2023-01-29T03:44:18.105Z,69.95
2023-01-29T03:44:53.926Z,70.01
2023-01-29T03:45:29.733Z,70.21
2023-01-29T03:46:46.975Z,69.82
2023-01-29T03:48:13.716Z,69.79
2023-01-29T03:49:03.273Z,69.83
2023-01-29T03:49:59.399Z,69.86
2023-01-29T03:50:38.809Z,69.89
2023-01-29T03:52:15.885Z,70.02
2023-01-29T03:52:51.930Z,70.07
2023-01-29T03:53:38.523Z,69.60
2023-01-29T03:54:18.974Z,69.78
2023-01-29T03:55:11.899Z,69.62
2023-01-29T03:56:02.408Z,69.73
2023-01-29T03:56:57.489Z,69.63
2023-01-29T03:57:58.354Z,69.62
2023-01-29T03:58:42.555Z,69.68
2023-01-29T03:59:20.540Z,69.89
2023-01-29T04:00:52.700Z,69.75
2023-01-29T04:04:17.149Z,70.13
2023-01-29T04:04:52.084Z,69.95
2023-01-29T04:05:26.314Z,70.11
2023-01-29T04:06:50.386Z,70.33
2023-01-29T04:09:48.562Z,70.07
2023-01-29T04:12:32.047Z,69.93
2023-01-29T04:13:10.614Z,69.76
2023-01-29T04:13:43.783Z,70.22
2023-01-29T04:14:17.162Z,69.99
2023-01-29T04:15:30.152Z,70.26
2023-01-29T04:16:42.396Z,69.90
2023-01-29T04:17:56.502Z,69.95
2023-01-29T04:18:29.550Z,69.92
2023-01-29T04:19:40.549Z,69.87
2023-01-29T04:20:13.945Z,69.88
2023-01-29T04:20:47.066Z,69.81
2023-01-29T04:21:20.280Z,69.89
2023-01-29T04:21:56.219Z,69.63
2023-01-29T04:23:23.263Z,69.43
2023-01-29T04:23:56.390Z,69.69
2023-01-29T04:24:29.589Z,69.82
2023-01-29T04:25:08.625Z,69.74
2023-01-29T04:26:28.857Z,69.74
2023-01-29T04:27:12.329Z,69.50
2023-01-29T04:28:08.957Z,69.43
2023-01-29T04:30:18.903Z,69.64
2023-01-29T04:31:52.625Z,69.43
2023-01-29T04:32:32.926Z,69.37
2023-01-29T04:33:21.788Z,69.40
2023-01-29T04:34:16.498Z,69.72
2023-01-29T04:34:59.522Z,69.39
2023-01-29T04:35:47.813Z,69.55
2023-01-29T04:36:39.626Z,69.29
2023-01-29T04:37:17.719Z,69.60
2023-01-29T04:37:56.634Z,69.69
2023-01-29T04:40:20.505Z,69.66
2023-01-29T04:41:09.658Z,69.68
2023-01-29T04:41:46.519Z,69.58
2023-01-29T04:43:05.232Z,69.87
2023-01-29T04:44:33.643Z,69.90
2023-01-29T04:45:17.057Z,69.85
2023-01-29T04:46:08.784Z,69.73
2023-01-29T04:46:49.126Z,70.10
2023-01-29T04:48:07.869Z,70.00
2023-01-29T04:48:40.831Z,70.18
2023-01-29T04:49:36.235Z,70.44
2023-01-29T04:50:22.247Z,70.32
2023-01-29T04:51:01.224Z,70.25
2023-01-29T04:52:33.485Z,70.40
2023-01-29T04:53:40.252Z,70.23
2023-01-29T04:54:26.440Z,70.92
2023-01-29T04:55:06.783Z,70.60
2023-01-29T04:56:37.602Z,70.92
2023-01-29T04:57:13.465Z,71.07
2023-01-29T04:58:13.745Z,71.10
2023-01-29T04:58:52.165Z,70.97
2023-01-29T04:59:33.636Z,70.97
2023-01-29T05:02:08.163Z,71.84
2023-01-29T05:03:19.068Z,71.42
2023-01-29T05:03:51.992Z,71.38
2023-01-29T05:05:02.650Z,71.17
2023-01-29T05:06:51.987Z,71.34
2023-01-29T05:07:25.187Z,71.50
2023-01-29T05:07:58.136Z,71.46
2023-01-29T05:08:31.239Z,71.22
2023-01-29T05:11:37.813Z,71.63
2023-01-29T05:12:51.913Z,71.78
2023-01-29T05:14:03.713Z,71.61
2023-01-29T05:14:36.667Z,71.93
2023-01-29T05:15:12.528Z,71.53
2023-01-29T05:15:49.696Z,71.65
2023-01-29T05:17:05.051Z,71.99
2023-01-29T05:17:37.953Z,71.69
2023-01-29T05:18:48.721Z,71.87
2023-01-29T05:20:17.209Z,72.12
2023-01-29T05:20:50.472Z,72.34
2023-01-29T05:22:39.883Z,72.26
2023-01-29T05:23:20.279Z,72.28
2023-01-29T05:25:32.744Z,72.93
2023-01-29T05:26:06.073Z,72.80
2023-01-29T05:26:57.365Z,72.56
2023-01-29T05:27:51.724Z,72.47
2023-01-29T05:31:03.103Z,72.56
2023-01-29T05:31:36.237Z,72.82
2023-01-29T05:32:09.281Z,72.93
2023-01-29T05:33:30.877Z,72.65
2023-01-29T05:35:19.661Z,72.79
2023-01-29T05:36:30.910Z,72.63
2023-01-29T05:37:41.908Z,72.45
2023-01-29T05:38:15.158Z,72.42
2023-01-29T05:38:48.127Z,72.70
2023-01-29T05:39:21.308Z,72.50
2023-01-29T05:40:33.731Z,72.63
2023-01-29T05:41:06.710Z,72.70
2023-01-29T05:41:39.641Z,72.69
2023-01-29T05:42:51.074Z,72.39
2023-01-29T05:45:18.908Z,72.50
2023-01-29T05:45:56.553Z,71.98
2023-01-29T05:46:29.548Z,72.24
2023-01-29T05:47:05.179Z,72.46
2023-01-29T05:47:38.254Z,72.07
2023-01-29T05:48:11.329Z,71.92
2023-01-29T05:48:46.120Z,72.28
2023-01-29T05:49:20.630Z,72.15
2023-01-29T05:49:53.630Z,72.15
2023-01-29T05:50:26.912Z,72.11
2023-01-29T05:51:01.428Z,72.13
2023-01-29T05:52:49.966Z,72.45
2023-01-29T05:53:22.932Z,72.24
2023-01-29T05:55:11.523Z,72.16
2023-01-29T05:56:23.776Z,72.04
2023-01-29T05:56:56.643Z,71.90
2023-01-29T05:57:29.617Z,71.81
2023-01-29T05:58:40.375Z,71.82
2023-01-29T05:59:51.286Z,72.03
2023-01-29T06:01:12.233Z,71.98
2023-01-29T06:01:45.259Z,72.12
2023-01-29T06:02:18.302Z,72.04
2023-01-29T06:02:51.353Z,72.01
2023-01-29T06:03:24.402Z,72.15
2023-01-29T06:03:57.293Z,72.05
2023-01-29T06:05:08.984Z,72.11
2023-01-29T06:06:19.854Z,71.77
2023-01-29T06:07:30.560Z,71.56
2023-01-29T06:08:41.668Z,71.48
2023-01-29T06:09:52.531Z,71.60
2023-01-29T06:12:19.372Z,71.26
2023-01-29T06:13:30.233Z,71.58
2023-01-29T06:14:42.018Z,71.48
2023-01-29T06:15:53.679Z,71.54
2023-01-29T06:16:26.807Z,71.40
2023-01-29T06:16:59.849Z,71.18
2023-01-29T06:18:10.448Z,71.43
2023-01-29T06:19:59.053Z,71.40
2023-01-29T06:21:11.653Z,71.49
2023-01-29T06:22:22.409Z,71.38
2023-01-29T06:22:55.283Z,71.14
2023-01-29T06:23:28.211Z,71.47
2023-01-29T06:24:01.269Z,71.52
2023-01-29T06:25:49.973Z,71.41
2023-01-29T06:27:00.735Z,71.16
2023-01-29T06:28:11.389Z,71.40
2023-01-29T06:28:46.207Z,71.28
2023-01-29T06:29:19.076Z,71.18
2023-01-29T06:29:52.048Z,71.14
2023-01-29T06:31:23.840Z,71.08
2023-01-29T06:31:56.733Z,71.17
2023-01-29T06:32:29.797Z,71.14
2023-01-29T06:33:03.128Z,71.43
2023-01-29T06:33:36.087Z,71.57
2023-01-29T06:34:08.970Z,71.54
2023-01-29T06:35:19.937Z,71.40
2023-01-29T06:35:59.974Z,71.38
2023-01-29T06:36:32.879Z,71.36
2023-01-29T06:37:06.223Z,71.42
2023-01-29T06:37:39.046Z,71.52
2023-01-29T06:39:27.440Z,71.62
2023-01-29T06:40:39.121Z,71.66
2023-01-29T06:41:19.258Z,71.85
2023-01-29T06:41:52.231Z,71.66
2023-01-29T06:42:28.253Z,71.63
2023-01-29T06:43:01.719Z,71.48
2023-01-29T06:44:12.525Z,71.20
2023-01-29T06:45:24.236Z,71.78
2023-01-29T06:48:28.678Z,72.02
2023-01-29T06:49:39.587Z,71.76
2023-01-29T06:50:50.963Z,71.90
2023-01-29T06:52:01.822Z,71.79
2023-01-29T06:52:34.725Z,71.51
2023-01-29T06:53:07.672Z,71.56
2023-01-29T06:54:19.960Z,71.45
2023-01-29T06:56:08.819Z,71.65
2023-01-29T06:56:41.886Z,71.30
2023-01-29T06:57:52.850Z,71.47
2023-01-29T06:58:25.925Z,71.55
2023-01-29T06:58:58.907Z,71.73
2023-01-29T07:00:10.670Z,71.65
2023-01-29T07:01:35.158Z,71.69
2023-01-29T07:02:50.226Z,71.65
2023-01-29T07:03:23.298Z,71.88
2023-01-29T07:03:56.252Z,71.86
2023-01-29T07:05:07.492Z,71.54
2023-01-29T07:05:40.413Z,71.76
2023-01-29T07:06:51.067Z,71.79
2023-01-29T07:08:39.610Z,71.84
2023-01-29T07:09:16.433Z,71.81
2023-01-29T07:09:49.349Z,71.65
2023-01-29T07:10:22.142Z,71.63
2023-01-29T07:11:39.855Z,71.82
2023-01-29T07:12:50.699Z,71.80
2023-01-29T07:13:23.671Z,71.47
2023-01-29T07:13:57.080Z,71.81
2023-01-29T07:14:30.026Z,71.47
2023-01-29T07:15:03.001Z,71.64
2023-01-29T07:15:37.263Z,71.55
2023-01-29T07:16:10.322Z,71.83
2023-01-29T07:18:41.783Z,71.56
2023-01-29T07:19:14.802Z,71.75
2023-01-29T07:19:47.717Z,71.78
2023-01-29T07:20:20.646Z,71.54
2023-01-29T07:22:09.189Z,71.32
2023-01-29T07:22:42.161Z,71.41
2023-01-29T07:25:09.429Z,71.02
2023-01-29T07:26:20.376Z,71.56
2023-01-29T07:27:31.759Z,71.30
2023-01-29T07:29:58.223Z,71.44
2023-01-29T07:31:09.389Z,71.30
2023-01-29T07:32:20.136Z,71.39
2023-01-29T07:32:53.186Z,71.40
2023-01-29T07:33:26.159Z,71.61
2023-01-29T07:33:59.131Z,71.30
2023-01-29T07:35:48.392Z,71.20
2023-01-29T07:36:21.366Z,71.23
2023-01-29T07:36:54.643Z,71.56
2023-01-29T07:37:27.619Z,71.43
2023-01-29T07:38:00.534Z,71.32
2023-01-29T07:39:11.144Z,71.59
2023-01-29T07:39:44.424Z,71.44
2023-01-29T07:40:18.078Z,71.58
2023-01-29T07:41:32.048Z,71.55
2023-01-29T07:42:44.243Z,71.59
2023-01-29T07:43:17.331Z,71.39
2023-01-29T07:43:50.297Z,71.45
2023-01-29T07:44:23.363Z,71.38
2023-01-29T07:44:56.352Z,71.37
2023-01-29T07:45:29.984Z,71.13
2023-01-29T07:46:04.219Z,71.34
2023-01-29T07:46:37.202Z,71.43
2023-01-29T07:47:10.173Z,71.25
2023-01-29T07:47:43.145Z,71.52
2023-01-29T07:48:16.021Z,71.35
2023-01-29T07:49:26.779Z,71.47
2023-01-29T07:50:37.637Z,71.37
2023-01-29T07:51:10.608Z,71.22
2023-01-29T07:52:59.257Z,71.00
2023-01-29T07:53:32.960Z,71.15
2023-01-29T07:54:06.039Z,71.07
2023-01-29T07:54:38.995Z,71.17
2023-01-29T07:55:49.860Z,71.10
2023-01-29T07:57:00.514Z,71.03
2023-01-29T07:58:11.270Z,71.05
2023-01-29T07:59:21.873Z,71.06
2023-01-29T08:01:10.622Z,70.69
2023-01-29T08:03:06.696Z,70.39
2023-01-29T08:04:17.558Z,70.52
2023-01-29T08:04:50.632Z,70.60
2023-01-29T08:06:01.801Z,70.36
2023-01-29T08:08:06.143Z,70.24
2023-01-29T08:09:17.819Z,70.37
2023-01-29T08:09:50.770Z,70.16
2023-01-29T08:11:02.960Z,70.34
2023-01-29T08:11:35.934Z,70.42
2023-01-29T08:12:08.939Z,70.17
2023-01-29T08:13:19.580Z,70.14
2023-01-29T08:13:52.802Z,70.50
2023-01-29T08:15:47.637Z,70.39
2023-01-29T08:16:58.245Z,70.08
2023-01-29T08:17:31.161Z,69.99
2023-01-29T08:18:47.831Z,69.84
2023-01-29T08:19:58.524Z,69.67
2023-01-29T08:20:31.486Z,69.61
2023-01-29T08:22:19.883Z,69.55
2023-01-29T08:24:22.224Z,69.23
2023-01-29T08:26:10.843Z,69.15
2023-01-29T08:27:59.701Z,69.02
2023-01-29T08:28:32.775Z,68.89
2023-01-29T08:29:43.630Z,69.14
2023-01-29T08:30:17.652Z,69.00
2023-01-29T08:30:51.584Z,69.21
2023-01-29T08:32:40.578Z,69.21
2023-01-29T08:33:52.857Z,68.91
2023-01-29T08:35:03.806Z,68.90
2023-01-29T08:35:37.117Z,68.84
2023-01-29T08:36:10.526Z,68.80
2023-01-29T08:38:39.288Z,68.33
2023-01-29T08:39:12.260Z,68.36
2023-01-29T08:41:39.100Z,68.64
2023-01-29T08:42:49.862Z,68.65
2023-01-29T08:43:22.887Z,68.60
2023-01-29T08:43:56.010Z,68.48
2023-01-29T08:44:28.984Z,68.71
2023-01-29T08:46:21.643Z,68.52
2023-01-29T08:46:57.580Z,68.83
2023-01-29T08:48:08.634Z,68.67
2023-01-29T08:48:41.607Z,68.47
2023-01-29T08:51:51.766Z,68.16
2023-01-29T08:53:04.490Z,67.75
2023-01-29T08:53:37.354Z,67.78
2023-01-29T08:54:10.412Z,67.77
2023-01-29T08:54:43.230Z,67.70
2023-01-29T08:55:16.392Z,67.92
2023-01-29T08:56:27.424Z,67.82
2023-01-29T08:57:38.932Z,67.74
2023-01-29T08:58:50.274Z,67.73
2023-01-29T09:00:01.033Z,67.78
2023-01-29T09:01:51.317Z,67.45
2023-01-29T09:03:03.347Z,67.44
2023-01-29T09:03:36.384Z,67.22
2023-01-29T09:04:09.454Z,67.27
2023-01-29T09:04:42.429Z,67.36
2023-01-29T09:05:53.225Z,67.24
2023-01-29T09:06:26.188Z,67.29
2023-01-29T09:06:59.241Z,67.36
2023-01-29T09:07:32.325Z,67.36
2023-01-29T09:08:05.896Z,67.56
2023-01-29T09:08:39.177Z,67.48
2023-01-29T09:09:12.075Z,67.48
2023-01-29T09:11:01.005Z,67.25
2023-01-29T09:12:11.760Z,67.05
2023-01-29T09:13:22.525Z,66.76
2023-01-29T09:13:55.352Z,66.72
2023-01-29T09:14:28.580Z,66.55
2023-01-29T09:15:01.583Z,66.30
2023-01-29T09:16:12.202Z,66.31
2023-01-29T09:19:20.104Z,66.43
2023-01-29T09:19:53.314Z,66.49
2023-01-29T09:20:26.256Z,66.25
2023-01-29T09:20:59.338Z,66.18
2023-01-29T09:22:48.180Z,66.00
2023-01-29T09:23:58.937Z,65.85
2023-01-29T09:24:32.876Z,65.89
2023-01-29T09:25:06.420Z,65.94
2023-01-29T09:25:39.501Z,65.78
2023-01-29T09:26:50.258Z,65.80
2023-01-29T09:28:01.218Z,65.82
2023-01-29T09:29:11.975Z,65.45
2023-01-29T09:29:44.948Z,65.42
2023-01-29T09:30:18.756Z,65.29
2023-01-29T09:31:29.706Z,64.87
2023-01-29T09:33:20.123Z,64.51
2023-01-29T09:33:53.067Z,64.66
2023-01-29T09:34:26.038Z,64.42
2023-01-29T09:34:58.955Z,64.13
2023-01-29T09:36:47.868Z,63.61
2023-01-29T09:37:23.460Z,63.81
2023-01-29T09:37:57.085Z,63.59
2023-01-29T09:39:41.738Z,63.82
2023-01-29T09:40:38.880Z,63.79
2023-01-29T09:41:24.046Z,63.80
2023-01-29T09:42:02.063Z,63.90
2023-01-29T09:42:41.356Z,64.08
2023-01-29T09:43:23.848Z,64.12
2023-01-29T09:44:00.145Z,64.10
2023-01-29T09:44:41.976Z,63.90
2023-01-29T09:45:16.763Z,63.87
2023-01-29T09:46:02.197Z,63.92
2023-01-29T09:51:05.030Z,64.06
2023-01-29T09:53:07.423Z,64.42
2023-01-29T09:53:43.783Z,64.49
2023-01-29T09:54:18.148Z,64.38
2023-01-29T09:55:07.802Z,64.58
2023-01-29T09:55:50.968Z,64.75
2023-01-29T09:56:28.965Z,64.93
2023-01-29T09:57:39.912Z,65.12
2023-01-29T09:59:40.965Z,65.62
2023-01-29T10:00:16.860Z,65.58
2023-01-29T10:01:11.238Z,65.82
2023-01-29T10:01:50.761Z,65.85
2023-01-29T10:03:43.352Z,66.19
2023-01-29T10:04:25.263Z,66.02
2023-01-29T10:05:18.931Z,66.24
2023-01-29T10:06:33.929Z,66.24
2023-01-29T10:08:34.212Z,66.15
2023-01-29T10:09:30.263Z,66.27
2023-01-29T10:11:39.966Z,66.69
2023-01-29T10:12:16.160Z,67.15
2023-01-29T10:13:23.433Z,66.98
2023-01-29T10:14:19.959Z,66.80
2023-01-29T10:15:18.371Z,66.72
2023-01-29T10:16:42.918Z,66.61
2023-01-29T10:17:48.147Z,66.68
2023-01-29T10:18:48.345Z,66.57
2023-01-29T10:19:35.350Z,66.71
2023-01-29T10:20:39.571Z,66.65
2023-01-29T10:21:30.629Z,66.37
2023-01-29T10:22:42.131Z,66.55
2023-01-29T10:23:37.232Z,66.48
2023-01-29T10:24:28.793Z,66.64
2023-01-29T10:25:42.965Z,66.74
2023-01-29T10:26:15.978Z,66.78
2023-01-29T10:26:49.940Z,66.84
2023-01-29T10:27:22.858Z,66.82
2023-01-29T10:27:57.736Z,66.75
2023-01-29T10:28:43.345Z,66.86
2023-01-29T10:29:18.291Z,66.72
2023-01-29T10:30:40.808Z,66.76
2023-01-29T10:31:28.173Z,66.57
2023-01-29T10:32:06.224Z,66.37
2023-01-29T10:33:48.791Z,66.26
2023-01-29T10:34:45.972Z,66.33
2023-01-29T10:37:41.716Z,66.62
2023-01-29T10:38:40.245Z,66.93
2023-01-29T10:40:47.161Z,67.04
2023-01-29T10:42:06.901Z,66.90
2023-01-29T10:43:29.059Z,66.95
2023-01-29T10:44:33.366Z,67.01
2023-01-29T10:45:21.799Z,67.06
2023-01-29T11:21:29.882Z,67.42
2023-01-29T11:22:38.020Z,67.74
2023-01-29T11:23:28.611Z,67.67
2023-01-29T11:24:12.085Z,67.92
2023-01-29T11:24:45.856Z,67.92
2023-01-29T11:25:58.951Z,67.87
2023-01-29T11:26:33.725Z,67.85
2023-01-29T11:27:40.312Z,68.04
2023-01-29T11:28:13.268Z,68.19
2023-01-29T11:28:47.976Z,68.40
2023-01-29T11:29:45.152Z,68.37
2023-01-29T11:32:15.313Z,68.70
2023-01-29T11:33:09.350Z,68.74
2023-01-29T11:33:42.217Z,68.88
2023-01-29T11:34:33.464Z,68.93
2023-01-29T11:35:27.085Z,68.77
2023-01-29T11:35:59.902Z,68.80
2023-01-29T11:36:35.168Z,68.92
2023-01-29T11:37:16.037Z,68.89
2023-01-29T11:37:49.025Z,69.03
2023-01-29T11:38:24.189Z,68.95
2023-01-29T11:39:09.411Z,68.94
2023-01-29T11:40:37.888Z,69.18
2023-01-29T11:41:22.307Z,69.05
2023-01-29T11:41:58.176Z,69.08
2023-01-29T11:42:31.532Z,69.31
2023-01-29T11:43:26.742Z,69.21
2023-01-29T11:44:00.738Z,69.16
2023-01-29T11:46:13.954Z,69.74
2023-01-29T11:50:20.333Z,70.09
2023-01-29T11:50:57.604Z,69.85
2023-01-29T11:52:09.444Z,69.82
2023-01-29T11:53:45.212Z,69.74
2023-01-29T11:54:18.278Z,69.68
2023-01-29T11:54:53.807Z,69.74
2023-01-29T11:55:29.609Z,69.64
2023-01-29T11:56:16.536Z,69.63
2023-01-29T11:56:51.907Z,69.60
2023-01-29T11:58:29.452Z,69.53
2023-01-29T11:59:48.575Z,69.42
2023-01-29T12:02:26.796Z,69.11
2023-01-29T12:03:18.568Z,69.23
2023-01-29T12:04:31.138Z,69.09
2023-01-29T12:05:07.201Z,69.08
2023-01-29T12:05:40.722Z,69.36
2023-01-29T12:07:02.892Z,69.46
2023-01-29T12:08:17.395Z,69.50
2023-01-29T12:08:58.190Z,69.78
2023-01-29T12:10:29.852Z,69.80
2023-01-29T12:11:16.312Z,69.98
2023-01-29T12:11:49.307Z,70.17
2023-01-29T12:12:25.350Z,70.12
2023-01-29T12:13:27.817Z,70.17
2023-01-29T12:14:05.289Z,70.42
2023-01-29T12:14:38.978Z,70.54
2023-01-29T12:15:17.530Z,70.39
2023-01-29T12:15:50.911Z,70.33
2023-01-29T12:19:24.778Z,70.47
2023-01-29T12:20:52.640Z,70.59
2023-01-29T12:21:45.685Z,70.74
2023-01-29T12:22:43.299Z,70.66
2023-01-29T12:24:25.220Z,70.76
2023-01-29T12:25:58.305Z,70.78
2023-01-29T12:26:35.698Z,70.82
2023-01-29T12:27:38.034Z,70.74
2023-01-29T12:28:55.675Z,70.76
2023-01-29T12:29:41.537Z,70.81
2023-01-29T12:31:58.445Z,70.99
2023-01-29T12:33:13.522Z,71.10
2023-01-29T12:34:04.912Z,71.25
2023-01-29T12:35:33.800Z,71.53
2023-01-29T12:36:17.417Z,71.61
2023-01-29T12:36:57.105Z,71.76
2023-01-29T12:37:38.723Z,71.66
2023-01-29T12:38:19.101Z,71.62
2023-01-29T12:38:52.251Z,71.92
2023-01-29T12:40:03.340Z,72.06
2023-01-29T12:43:07.663Z,73.35
2023-01-29T12:43:43.881Z,73.43
2023-01-29T12:44:20.163Z,73.53
2023-01-29T12:44:59.865Z,73.39
2023-01-29T12:46:19.121Z,73.63
2023-01-29T12:46:54.916Z,73.69
2023-01-29T12:47:33.885Z,73.78
2023-01-29T12:48:09.551Z,73.84
2023-01-29T12:48:42.592Z,73.69
2023-01-29T12:49:17.544Z,73.71
2023-01-29T12:52:14.557Z,74.17
2023-01-29T12:52:52.340Z,74.28
2023-01-29T12:53:25.414Z,74.39
2023-01-29T12:59:43.071Z,74.71
2023-01-29T13:00:22.617Z,74.60
2023-01-29T13:00:57.445Z,74.37
2023-01-29T13:01:33.695Z,74.32
2023-01-29T13:02:09.706Z,74.58
2023-01-29T13:03:46.685Z,74.55
2023-01-29T13:05:18.226Z,74.49
2023-01-29T13:06:31.631Z,74.64
2023-01-29T13:07:16.291Z,74.53
2023-01-29T13:07:52.273Z,74.44
2023-01-29T13:08:29.453Z,74.43
2023-01-29T13:10:27.877Z,74.33
2023-01-29T13:12:21.422Z,74.24
2023-01-29T13:13:56.881Z,74.50
2023-01-29T13:14:41.184Z,74.59
2023-01-29T13:15:21.892Z,74.71
2023-01-29T13:17:34.073Z,74.47
2023-01-29T13:18:31.469Z,74.61
2023-01-29T13:19:24.148Z,74.36
2023-01-29T13:19:58.636Z,74.52
2023-01-29T13:21:15.671Z,74.52
2023-01-29T13:21:48.586Z,74.63
2023-01-29T13:22:29.057Z,74.43
2023-01-29T13:23:28.028Z,74.36
2023-01-29T13:25:59.036Z,74.16
2023-01-29T13:26:32.767Z,74.00
2023-01-29T13:30:39.129Z,74.06
2023-01-29T13:32:10.905Z,74.26
2023-01-29T13:32:51.480Z,74.36
2023-01-29T13:34:13.582Z,74.43
2023-01-29T13:34:47.247Z,74.52
2023-01-29T13:35:20.353Z,74.57
2023-01-29T13:35:58.458Z,74.51
2023-01-29T13:37:54.431Z,74.39
2023-01-29T13:38:29.471Z,74.68
2023-01-29T13:39:06.693Z,74.77
2023-01-29T13:41:04.025Z,74.72
2023-01-29T13:41:38.755Z,74.59
2023-01-29T13:42:38.663Z,74.60
2023-01-29T13:44:28.424Z,74.84
2023-01-29T13:46:21.684Z,75.10
2023-01-29T13:47:05.320Z,75.06
2023-01-29T13:49:22.459Z,74.92
2023-01-29T13:50:11.076Z,74.90
2023-01-29T13:52:01.267Z,74.60
2023-01-29T13:53:08.362Z,74.62
2023-01-29T13:56:42.187Z,74.53
2023-01-29T13:59:21.806Z,74.52
2023-01-29T14:00:33.150Z,74.51
2023-01-29T14:01:06.110Z,74.42
2023-01-29T14:01:48.231Z,74.52
2023-01-29T14:02:26.166Z,74.40
2023-01-29T14:03:01.872Z,74.49
2023-01-29T14:04:03.690Z,74.15